Indus, Minnesota
Current Conditions -  °F | °C
As of 11:53 PM on Saturday 25 Oct 2014 (Local Time) from KBDE Reporting Station
Clear Clear  
Wind Chill: 36°   Ceiling: Unl
Heat Index: 36°   Visibility: 10mi
Dew Point: 27°   Wind: 3mph
Humidity: 70%   Direction: 230°SW
Pressure: 29.96"   Gusts: NA
Location:  48.6069°N, 94.172°W
Report Text: KBDE 260453Z AUTO 23003KT 10SM CLR 02/M03 A2996 RMK AO2 SLP154 T00221028 TSNO
Loading
Personal Weather Stations






























Interactive Weather Map
Tropical Storm Tracking
New forecast layout! Learn more

10-Day Weather Forecast

Advertisements
Track Severe Weather on mobile